Time;durP1;ratioP1;P1;durP2;ratioP2;P2;SDS_P1;SDS_P2;PMS_P1;PMS_P2;Temp;Humidity;BMP_temperature;BMP_pressure;BME280_temperature;BME280_humidity;BME280_pressure;Samples;Min_cycle;Max_cycle;Signal;HPM_P1;HPM_P2
2022/08/23 00:04:42;;;;;;;6.95;6.20;;;26.40;57.40;;;;;;4822549;54;20974;-27
2022/08/23 00:09:43;;;;;;;6.68;6.07;;;26.40;57.30;;;;;;4829228;54;21117;-33
2022/08/23 00:14:51;;;;;;;7.07;6.37;;;26.40;57.30;;;;;;4801962;54;21040;-36
2022/08/23 00:19:51;;;;;;;6.35;5.53;;;26.40;57.30;;;;;;4805651;54;20978;-35
2022/08/23 00:24:52;;;;;;;7.03;6.05;;;26.40;57.30;;;;;;4806556;54;21029;-34
2022/08/23 00:29:54;;;;;;;6.70;6.07;;;26.40;57.30;;;;;;4832897;54;21591;-36
2022/08/23 00:34:58;;;;;;;6.70;6.00;;;26.40;57.40;;;;;;4836400;54;21081;-27
2022/08/23 00:39:59;;;;;;;7.00;6.30;;;26.40;57.40;;;;;;4827380;54;21478;-36
2022/08/23 00:52:00;;;;;;;6.12;5.60;;;26.40;57.40;;;;;;4799884;58;22345;-31
2022/08/23 00:57:04;;;;;;;6.37;5.78;;;26.40;58.20;;;;;;4831483;54;21012;-30
2022/08/23 01:02:07;;;;;;;6.37;5.78;;;26.40;57.50;;;;;;4828261;54;21164;-38
2022/08/23 01:07:45;;;;;;;6.37;5.78;;;26.40;57.50;;;;;;4813394;54;21025;-34
2022/08/23 01:12:53;;;;;;;6.32;5.72;;;26.40;57.50;;;;;;4811166;54;21800;-27
2022/08/23 01:18:09;;;;;;;6.12;5.53;;;26.40;57.50;;;;;;4814383;54;21021;-30
2022/08/23 01:23:26;;;;;;;7.12;5.85;;;26.40;57.60;;;;;;4898026;54;20997;-27
2022/08/23 01:28:27;;;;;;;6.35;5.80;;;26.40;57.50;;;;;;4801253;54;21097;-31
2022/08/23 01:33:28;;;;;;;5.87;5.28;;;26.40;57.60;;;;;;4811563;54;21124;-32
2022/08/23 01:38:29;;;;;;;6.28;5.68;;;26.40;57.60;;;;;;4841117;54;21414;-31
2022/08/23 01:43:30;;;;;;;6.45;5.37;;;26.40;57.60;;;;;;4822393;54;21009;-29
2022/08/23 01:48:30;;;;;;;5.97;5.28;;;26.40;57.60;;;;;;4800106;58;21152;-30
2022/08/23 01:53:31;;;;;;;5.85;5.28;;;26.40;57.70;;;;;;4800122;58;21104;-35
2022/08/23 01:58:33;;;;;;;5.55;5.05;;;26.40;57.70;;;;;;4849581;54;21113;-31
2022/08/23 02:03:34;;;;;;;5.62;5.12;;;26.40;57.60;;;;;;4844461;54;21093;-37
2022/08/23 02:13:57;;;;;;;5.90;5.20;;;26.40;57.70;;;;;;4800089;54;21056;-32
2022/08/23 02:19:01;;;;;;;5.78;5.28;;;26.40;57.80;;;;;;4812018;54;21113;-35
2022/08/23 02:24:12;;;;;;;5.85;5.22;;;26.40;57.70;;;;;;4852426;54;21575;-36
2022/08/23 02:29:15;;;;;;;5.37;4.87;;;26.40;57.80;;;;;;4811169;54;21066;-28
2022/08/23 02:34:17;;;;;;;6.18;5.57;;;26.40;57.70;;;;;;4862428;54;21048;-33
2022/08/23 02:39:19;;;;;;;5.18;4.75;;;26.40;57.80;;;;;;4858501;54;21029;-36
2022/08/23 02:44:20;;;;;;;5.18;4.70;;;26.40;57.80;;;;;;4809463;54;21574;-37
2022/08/23 02:49:21;;;;;;;4.97;4.50;;;26.40;57.80;;;;;;4834821;54;21041;-34
2022/08/23 02:54:22;;;;;;;5.10;4.65;;;26.40;57.80;;;;;;4800580;54;21076;-37
2022/08/23 02:59:23;;;;;;;5.43;4.78;;;26.40;57.80;;;;;;4817821;54;21523;-34
2022/08/23 03:04:24;;;;;;;4.78;4.37;;;26.40;58.40;;;;;;4800366;58;21005;-33
2022/08/23 03:09:25;;;;;;;5.00;4.60;;;26.40;57.80;;;;;;4800204;54;21728;-38
2022/08/23 03:14:26;;;;;;;5.57;4.85;;;26.40;57.80;;;;;;4826920;54;21673;-30
2022/08/23 03:19:27;;;;;;;4.97;4.47;;;26.40;57.90;;;;;;4809384;54;21504;-39
2022/08/23 03:24:28;;;;;;;4.82;4.43;;;26.40;57.80;;;;;;4822258;54;21033;-33
2022/08/23 03:29:30;;;;;;;5.35;4.85;;;26.30;57.70;;;;;;4837687;54;21042;-39
2022/08/23 03:34:31;;;;;;;5.28;4.78;;;26.40;57.80;;;;;;4809131;54;21836;-27
2022/08/23 03:39:32;;;;;;;5.37;4.87;;;26.40;57.90;;;;;;4810634;54;21025;-32
2022/08/23 03:44:33;;;;;;;4.80;4.40;;;26.40;57.90;;;;;;4826081;54;21052;-29
2022/08/23 03:49:34;;;;;;;5.10;4.32;;;26.40;57.90;;;;;;4801424;54;21128;-32
2022/08/23 03:54:35;;;;;;;4.78;4.37;;;26.40;57.90;;;;;;4803695;54;21037;-26
2022/08/23 03:59:39;;;;;;;4.93;4.30;;;26.40;58.00;;;;;;4803151;54;21069;-32
2022/08/23 04:04:43;;;;;;;4.60;3.87;;;26.30;57.80;;;;;;4820124;54;21002;-35
2022/08/23 04:09:43;;;;;;;5.10;4.10;;;26.40;57.90;;;;;;4863280;54;21136;-31
2022/08/23 04:14:44;;;;;;;4.90;4.40;;;26.30;57.90;;;;;;4815662;54;21077;-29
2022/08/23 04:19:46;;;;;;;4.97;3.80;;;26.30;57.90;;;;;;4801170;54;21013;-27
2022/08/23 04:24:47;;;;;;;4.70;4.18;;;26.40;58.00;;;;;;4825347;54;21013;-29
2022/08/23 04:29:49;;;;;;;4.53;4.03;;;26.30;57.90;;;;;;4815108;54;21523;-26
2022/08/23 04:34:50;;;;;;;4.82;3.83;;;26.30;57.90;;;;;;4805576;54;21480;-25
2022/08/23 04:47:29;;;;;;;4.43;4.00;;;26.30;57.90;;;;;;4814606;54;21141;-29
2022/08/23 04:52:29;;;;;;;4.78;4.32;;;26.30;57.80;;;;;;4849935;54;21408;-29
2022/08/23 04:57:31;;;;;;;4.97;3.78;;;26.30;57.80;;;;;;4804144;54;22069;-27
2022/08/23 05:02:32;;;;;;;3.75;3.45;;;26.30;57.90;;;;;;4812270;54;21455;-28
2022/08/23 05:07:33;;;;;;;5.80;3.78;;;26.30;57.90;;;;;;4814049;54;21039;-26
2022/08/23 05:12:34;;;;;;;5.93;4.10;;;26.30;57.90;;;;;;4848898;54;21098;-27
2022/08/23 05:17:36;;;;;;;4.22;3.83;;;26.30;57.80;;;;;;4812163;54;21057;-26
2022/08/23 05:22:39;;;;;;;5.10;3.92;;;26.30;57.80;;;;;;4907826;54;21072;-29
2022/08/23 05:27:40;;;;;;;4.15;3.65;;;26.30;57.80;;;;;;4815086;54;21029;-31
2022/08/23 05:32:41;;;;;;;4.40;4.00;;;26.30;57.80;;;;;;4834575;54;21538;-26
2022/08/23 05:37:42;;;;;;;5.53;4.12;;;26.30;57.80;;;;;;4840838;54;21036;-30
2022/08/23 05:42:43;;;;;;;4.82;4.07;;;26.30;57.80;;;;;;4812156;54;21139;-27
2022/08/23 05:47:45;;;;;;;4.80;4.30;;;26.30;57.80;;;;;;4849768;54;21554;-30
2022/08/23 05:52:46;;;;;;;4.30;3.90;;;26.30;57.80;;;;;;4814384;54;22413;-28
2022/08/23 05:57:47;;;;;;;4.28;3.87;;;26.30;57.80;;;;;;4844108;54;22648;-31
2022/08/23 06:02:48;;;;;;;4.60;4.20;;;26.30;57.80;;;;;;4831498;54;22231;-27
2022/08/23 06:07:49;;;;;;;4.20;3.80;;;26.30;57.80;;;;;;4855773;54;21768;-30
2022/08/23 06:12:51;;;;;;;6.80;4.30;;;26.30;57.80;;;;;;4894863;54;21069;-29
2022/08/23 06:17:52;;;;;;;5.78;4.40;;;26.30;57.80;;;;;;4805104;54;21863;-27
2022/08/23 06:22:53;;;;;;;8.40;5.65;;;26.30;57.80;;;;;;4818938;54;21139;-38
2022/08/23 06:27:54;;;;;;;5.82;5.10;;;26.30;57.70;;;;;;4827179;54;21132;-26
2022/08/23 06:32:54;;;;;;;9.40;5.70;;;26.20;58.30;;;;;;4804268;54;21073;-26
2022/08/23 06:37:55;;;;;;;7.10;5.50;;;26.20;57.60;;;;;;4799951;54;21574;-29
2022/08/23 06:42:57;;;;;;;7.00;5.93;;;26.20;57.60;;;;;;4810053;54;21154;-31
2022/08/23 06:47:58;;;;;;;6.93;6.15;;;26.20;57.50;;;;;;4803940;54;21578;-25
2022/08/23 06:52:59;;;;;;;7.35;5.25;;;26.20;57.60;;;;;;4858906;53;21080;-27
2022/08/23 06:58:00;;;;;;;14.95;10.70;;;26.20;57.50;;;;;;4830076;54;21069;-35
2022/08/23 07:03:00;;;;;;;19.02;12.37;;;26.20;57.00;;;;;;4799553;54;21507;-26
2022/08/23 07:08:02;;;;;;;20.55;12.15;;;26.00;57.70;;;;;;4822434;53;20879;-31
2022/08/23 07:13:03;;;;;;;16.90;10.32;;;26.00;57.40;;;;;;4749453;55;21067;-27
2022/08/23 07:18:04;;;;;;;24.00;15.40;;;25.90;57.40;;;;;;4735797;59;21052;-30
2022/08/23 07:23:05;;;;;;;20.73;14.70;;;25.90;57.60;;;;;;4756004;55;21518;-36
2022/08/23 07:28:05;;;;;;;30.92;20.25;;;25.80;57.50;;;;;;4775685;55;21020;-36
2022/08/23 07:33:07;;;;;;;40.10;26.42;;;25.80;57.50;;;;;;4764884;55;21011;-28
2022/08/23 07:38:08;;;;;;;33.88;23.80;;;25.70;57.60;;;;;;4736159;55;22493;-33
2022/08/23 07:43:09;;;;;;;34.13;25.33;;;25.80;57.50;;;;;;4733456;55;20996;-30
2022/08/23 07:48:11;;;;;;;32.55;24.73;;;26.00;57.80;;;;;;4734552;59;20967;-29
2022/08/23 07:53:11;;;;;;;36.45;26.20;;;26.00;57.60;;;;;;4735589;59;21498;-35
2022/08/23 07:58:12;;;;;;;48.85;35.00;;;26.10;57.60;;;;;;4743505;55;20995;-36
2022/08/23 08:03:15;;;;;;;52.88;31.92;;;26.20;57.30;;;;;;4741863;55;20984;-30
2022/08/23 08:08:16;;;;;;;44.42;28.60;;;26.00;57.30;;;;;;4749551;55;21491;-30
2022/08/23 08:13:16;;;;;;;38.28;25.37;;;25.90;57.50;;;;;;4754035;55;20995;-36
2022/08/23 08:18:17;;;;;;;34.25;18.92;;;25.90;57.60;;;;;;4740319;55;21043;-36
2022/08/23 08:23:18;;;;;;;26.40;17.25;;;25.80;57.70;;;;;;4756820;55;20999;-36
2022/08/23 08:28:19;;;;;;;37.17;23.83;;;25.80;57.60;;;;;;4803997;55;20971;-31
2022/08/23 08:33:20;;;;;;;37.13;25.02;;;25.80;57.60;;;;;;4785750;55;21000;-30
2022/08/23 08:38:21;;;;;;;48.97;32.08;;;25.70;57.70;;;;;;4757458;55;21004;-31
2022/08/23 08:46:13;;;;;;;88.90;59.15;;;25.80;58.30;;;;;;4757240;55;20992;-37
2022/08/23 08:51:31;;;;;;;89.50;57.95;;;25.80;58.00;;;;;;4736484;55;20992;-26
2022/08/23 08:56:35;;;;;;;84.20;54.78;;;25.80;58.00;;;;;;4747744;55;20980;-36
2022/08/23 09:01:37;;;;;;;74.62;50.20;;;25.90;57.90;;;;;;4750982;55;21054;-27
2022/08/23 09:07:01;;;;;;;73.97;48.00;;;26.00;57.90;;;;;;4804793;55;21063;-33
2022/08/23 09:15:31;;;;;;;73.65;49.13;;;26.10;57.70;;;;;;4741366;55;21128;-30
2022/08/23 09:20:33;;;;;;;63.47;43.33;;;26.10;57.60;;;;;;4735572;59;21059;-28
2022/08/23 09:25:34;;;;;;;55.12;35.83;;;26.20;57.40;;;;;;4735127;55;21563;-32
2022/08/23 09:30:56;;;;;;;78.47;50.15;;;26.10;57.40;;;;;;4762734;55;21118;-33
2022/08/23 09:36:22;;;;;;;63.97;38.17;;;26.00;57.80;;;;;;4786340;55;21826;-27
2022/08/23 09:41:40;;;;;;;73.25;45.92;;;25.80;58.20;;;;;;4791337;55;21098;-26
2022/08/23 09:46:41;;;;;;;74.78;46.63;;;25.80;58.60;;;;;;4781427;55;21481;-36
2022/08/23 09:51:42;;;;;;;64.87;44.53;;;25.80;58.80;;;;;;4738696;55;21556;-27
2022/08/23 09:56:57;;;;;;;73.50;46.20;;;25.80;58.90;;;;;;4758795;55;21051;-28
2022/08/23 10:01:59;;;;;;;55.30;35.75;;;25.80;58.90;;;;;;4743573;55;21016;-36
2022/08/23 10:07:01;;;;;;;47.33;33.58;;;25.80;58.90;;;;;;4777624;55;21011;-37
2022/08/23 10:12:02;;;;;;;64.62;41.17;;;25.80;59.00;;;;;;4735312;59;21539;-31
2022/08/23 10:20:39;;;;;;;48.10;29.25;;;25.80;59.00;;;;;;4764186;55;20984;-30
2022/08/23 10:26:01;;;;;;;62.33;40.45;;;25.70;59.10;;;;;;4749444;55;21600;-30
2022/08/23 10:32:46;;;;;;;89.40;58.20;;;25.80;59.30;;;;;;4774230;55;21016;-33
2022/08/23 10:37:54;;;;;;;;;;;25.80;59.40;;;;;;4757169;55;21083;-34
2022/08/23 10:43:33;;;;;;;77.50;55.65;;;25.80;59.70;;;;;;4754239;55;20064;-36
2022/08/23 10:48:39;;;;;;;62.72;48.25;;;25.80;60.00;;;;;;4765738;55;21047;-34
2022/08/23 10:53:55;;;;;;;;;;;25.80;60.10;;;;;;4758594;55;21492;-33
2022/08/23 10:59:16;;;;;;;73.30;47.62;;;25.80;60.20;;;;;;4761506;55;20302;-29
2022/08/23 11:04:33;;;;;;;101.40;70.45;;;25.80;60.80;;;;;;4737651;55;21554;-32
2022/08/23 11:09:46;;;;;;;115.20;76.10;;;25.90;60.80;;;;;;4769717;55;21497;-28
2022/08/23 11:15:12;;;;;;;113.32;76.93;;;25.90;61.00;;;;;;4741340;55;20987;-28
2022/08/23 11:20:55;;;;;;;96.10;70.57;;;26.00;60.80;;;;;;4742375;55;21043;-29
2022/08/23 11:25:56;;;;;;;89.22;66.18;;;26.10;60.50;;;;;;4739420;55;21000;-29
2022/08/23 11:31:22;;;;;;;87.18;64.78;;;26.10;60.30;;;;;;4739087;55;21068;-28
2022/08/23 11:36:25;;;;;;;84.95;61.92;;;26.20;60.20;;;;;;4757407;55;21012;-28
2022/08/23 11:41:29;;;;;;;77.12;56.17;;;26.20;59.90;;;;;;4747533;55;21015;-34
2022/08/23 11:46:58;;;;;;;66.78;51.75;;;26.20;59.80;;;;;;4754805;55;21047;-35
2022/08/23 11:52:58;;;;;;;55.25;41.97;;;26.20;59.60;;;;;;4756695;55;21481;-36
2022/08/23 11:58:22;;;;;;;35.33;28.87;;;26.10;59.90;;;;;;4737271;55;21008;-35
2022/08/23 12:03:34;;;;;;;64.90;49.47;;;26.00;59.90;;;;;;4737321;55;21070;-27
2022/08/23 12:09:00;;;;;;;50.60;37.15;;;26.00;59.50;;;;;;4760054;55;21473;-29
2022/08/23 12:14:52;;;;;;;34.70;24.90;;;26.00;59.50;;;;;;4745133;55;21564;-36
2022/08/23 12:20:10;;;;;;;26.85;19.23;;;25.90;59.80;;;;;;4740186;55;21482;-34
2022/08/23 12:25:18;;;;;;;18.87;15.27;;;25.90;59.90;;;;;;4758244;55;21545;-30
2022/08/23 12:30:43;;;;;;;21.83;18.00;;;25.90;60.00;;;;;;4735474;59;21063;-28
2022/08/23 12:38:43;;;;;;;22.85;17.90;;;25.90;60.10;;;;;;4738538;55;21048;-26
2022/08/23 12:44:07;;;;;;;28.92;23.20;;;25.90;60.20;;;;;;4746759;55;21007;-33
2022/08/23 12:49:20;;;;;;;51.35;33.72;;;25.90;60.00;;;;;;4752359;55;21043;-33
2022/08/23 12:54:33;;;;;;;72.82;44.25;;;26.00;60.00;;;;;;4746529;55;21082;-36
2022/08/23 12:59:50;;;;;;;67.37;37.60;;;25.90;59.90;;;;;;4771589;55;20987;-31
2022/08/23 13:04:53;;;;;;;66.40;34.28;;;26.00;59.90;;;;;;4760021;55;20991;-27
2022/08/23 13:09:55;;;;;;;79.00;35.35;;;25.90;60.10;;;;;;4742627;55;21154;-31
2022/08/23 13:15:00;;;;;;;86.55;47.10;;;25.90;60.20;;;;;;4753550;55;21007;-33
2022/08/23 13:20:22;;;;;;;69.65;35.70;;;25.90;60.50;;;;;;4775084;55;21498;-32
2022/08/23 13:25:36;;;;;;;77.18;37.92;;;25.80;60.60;;;;;;4738823;55;21561;-29
2022/08/23 13:30:37;;;;;;;64.35;34.80;;;25.90;60.40;;;;;;4743257;55;21075;-34
2022/08/23 13:35:44;;;;;;;43.95;28.60;;;25.80;60.50;;;;;;4743991;55;20984;-33
2022/08/23 13:41:01;;;;;;;48.78;28.73;;;25.80;60.50;;;;;;4784746;55;21055;-29
2022/08/23 13:46:24;;;;;;;35.55;26.48;;;25.80;60.60;;;;;;4850981;55;21750;-28
2022/08/23 13:51:34;;;;;;;47.95;31.70;;;25.80;60.60;;;;;;4740962;55;20992;-31
2022/08/23 13:56:40;;;;;;;57.72;39.40;;;25.80;60.70;;;;;;4741965;55;20967;-36
2022/08/23 14:01:41;;;;;;;56.90;39.10;;;25.80;60.80;;;;;;4756781;55;20979;-31
2022/08/23 14:06:41;;;;;;;74.85;46.55;;;25.80;61.00;;;;;;4736510;55;20992;-31
2022/08/23 14:11:43;;;;;;;66.75;43.92;;;25.80;61.20;;;;;;4745976;55;21533;-34
2022/08/23 14:16:44;;;;;;;59.92;40.55;;;25.80;61.40;;;;;;4739088;55;20988;-31
2022/08/23 14:21:45;;;;;;;60.75;42.33;;;25.90;61.40;;;;;;4736446;59;21008;-33
2022/08/23 14:26:46;;;;;;;57.58;39.65;;;25.90;61.00;;;;;;4741621;55;21465;-29
2022/08/23 14:31:47;;;;;;;55.85;38.22;;;25.90;60.90;;;;;;4763169;55;21093;-29
2022/08/23 14:36:50;;;;;;;51.55;37.13;;;25.90;60.70;;;;;;4779981;55;21007;-26
2022/08/23 14:41:51;;;;;;;51.42;37.47;;;26.00;60.80;;;;;;4762171;55;21498;-35
2022/08/23 14:46:52;;;;;;;52.62;36.70;;;26.00;60.70;;;;;;4744385;55;21003;-30
2022/08/23 14:51:53;;;;;;;50.45;37.40;;;26.00;60.60;;;;;;4751075;55;21898;-30
2022/08/23 14:56:54;;;;;;;47.17;36.45;;;26.00;60.50;;;;;;4755742;55;20999;-30
2022/08/23 15:01:56;;;;;;;49.20;36.08;;;26.00;60.50;;;;;;4756306;55;20980;-28
2022/08/23 15:06:57;;;;;;;45.88;35.30;;;26.00;60.40;;;;;;4750893;55;21003;-34
2022/08/23 15:11:57;;;;;;;46.00;35.42;;;26.00;60.40;;;;;;4735749;59;21020;-30
2022/08/23 15:17:01;;;;;;;41.85;33.55;;;26.10;60.40;;;;;;4736378;59;20989;-31
2022/08/23 15:22:02;;;;;;;46.42;34.88;;;26.00;60.30;;;;;;4752225;55;21516;-29
2022/08/23 15:27:05;;;;;;;44.67;34.63;;;26.00;60.20;;;;;;4737502;55;21553;-30
2022/08/23 15:32:06;;;;;;;42.75;32.15;;;26.00;60.30;;;;;;4735199;59;21071;-26
2022/08/23 15:37:06;;;;;;;46.37;33.85;;;26.00;60.20;;;;;;4736763;59;21018;-32
2022/08/23 15:42:07;;;;;;;42.62;33.00;;;26.00;60.20;;;;;;4736207;59;20980;-35
2022/08/23 15:49:46;;;;;;;41.47;32.08;;;26.00;60.20;;;;;;4793037;55;21023;-25
2022/08/23 15:54:47;;;;;;;39.95;31.42;;;26.00;60.20;;;;;;4746780;55;21594;-36
2022/08/23 15:59:48;;;;;;;38.42;30.45;;;26.00;60.20;;;;;;4751455;55;20971;-32
2022/08/23 16:04:49;;;;;;;39.30;30.98;;;26.00;60.20;;;;;;4736106;59;21063;-30
2022/08/23 16:09:51;;;;;;;38.90;30.85;;;26.00;60.10;;;;;;4765319;55;21135;-35
2022/08/23 16:14:52;;;;;;;36.40;29.80;;;26.10;60.10;;;;;;4771768;55;20987;-35
2022/08/23 16:19:52;;;;;;;39.55;30.98;;;26.00;60.00;;;;;;4749422;55;21151;-28
2022/08/23 16:24:54;;;;;;;39.30;30.27;;;26.00;60.60;;;;;;4782306;55;21079;-32
2022/08/23 16:29:55;;;;;;;40.03;30.83;;;26.10;60.10;;;;;;4735596;59;21558;-31
2022/08/23 16:34:56;;;;;;;38.60;30.12;;;26.00;60.00;;;;;;4738076;55;20975;-31
2022/08/23 16:39:56;;;;;;;36.03;29.30;;;26.10;60.00;;;;;;4753032;55;21079;-28
2022/08/23 16:44:57;;;;;;;37.20;28.60;;;26.00;60.00;;;;;;4753268;55;21077;-33
2022/08/23 16:49:58;;;;;;;39.58;29.98;;;26.10;60.00;;;;;;4738906;55;21024;-30
2022/08/23 16:54:59;;;;;;;34.65;28.98;;;26.10;60.00;;;;;;4763874;55;21027;-28
2022/08/23 17:00:01;;;;;;;35.58;28.70;;;26.10;59.90;;;;;;4779309;55;22294;-31
2022/08/23 17:05:04;;;;;;;36.13;30.10;;;26.10;59.90;;;;;;4764537;55;21974;-33
2022/08/23 17:10:07;;;;;;;34.28;28.70;;;26.10;59.80;;;;;;4736212;59;21031;-34
2022/08/23 17:15:14;;;;;;;35.75;28.12;;;26.10;60.00;;;;;;4735976;59;21024;-29
2022/08/23 17:20:17;;;;;;;34.17;27.67;;;26.10;59.90;;;;;;4747350;55;20983;-34
2022/08/23 17:25:18;;;;;;;33.88;27.42;;;26.10;59.80;;;;;;4751391;55;20988;-27
2022/08/23 17:30:23;;;;;;;31.67;26.23;;;26.00;59.80;;;;;;4752613;55;21107;-26
2022/08/23 17:35:28;;;;;;;35.85;27.90;;;26.10;59.80;;;;;;4753981;55;21075;-27
2022/08/23 17:40:33;;;;;;;36.27;28.07;;;26.10;59.80;;;;;;4737259;59;21565;-28
2022/08/23 17:45:43;;;;;;;33.08;26.87;;;26.10;59.80;;;;;;4741326;55;21059;-29
2022/08/23 17:50:45;;;;;;;32.10;26.17;;;26.10;59.80;;;;;;4752055;55;21309;-32
2022/08/23 17:55:46;;;;;;;32.65;25.70;;;26.10;59.90;;;;;;4776116;55;20975;-34
2022/08/23 18:00:47;;;;;;;32.42;26.20;;;26.10;59.80;;;;;;4735780;59;21067;-31
2022/08/23 18:05:48;;;;;;;33.88;26.27;;;26.10;59.80;;;;;;4792791;55;21493;-35
2022/08/23 18:10:48;;;;;;;33.60;27.17;;;26.10;59.90;;;;;;4735447;59;21118;-31
2022/08/23 18:15:49;;;;;;;32.88;26.40;;;26.10;59.90;;;;;;4736331;59;21051;-29
2022/08/23 18:20:50;;;;;;;31.83;25.52;;;26.10;60.00;;;;;;4753871;55;21513;-27
2022/08/23 18:25:51;;;;;;;33.53;26.95;;;26.10;60.00;;;;;;4758605;55;21090;-29
2022/08/23 18:30:54;;;;;;;35.67;27.08;;;26.10;59.90;;;;;;4770463;55;22043;-29
2022/08/23 18:35:55;;;;;;;30.83;26.62;;;26.10;60.00;;;;;;4776666;55;21470;-27
2022/08/23 18:40:56;;;;;;;32.17;26.15;;;26.10;60.70;;;;;;4794630;55;20979;-27
2022/08/23 18:45:56;;;;;;;32.13;25.75;;;26.10;60.00;;;;;;4751493;55;21028;-27
2022/08/23 18:50:57;;;;;;;30.73;25.88;;;26.10;60.00;;;;;;4759759;55;21501;-28
2022/08/23 18:55:58;;;;;;;29.48;24.50;;;26.10;60.00;;;;;;4764409;55;21023;-35
2022/08/23 19:00:59;;;;;;;33.78;26.98;;;26.10;60.10;;;;;;4778700;55;21028;-28
2022/08/23 19:06:00;;;;;;;29.33;25.02;;;26.00;60.00;;;;;;4753631;55;21031;-30
2022/08/23 19:11:00;;;;;;;29.92;25.83;;;26.10;60.00;;;;;;4756487;55;22360;-29
2022/08/23 19:16:07;;;;;;;29.73;24.77;;;26.10;60.00;;;;;;4769438;55;22147;-36
2022/08/23 19:21:20;;;;;;;30.37;24.95;;;26.10;60.00;;;;;;4763252;55;21504;-31
2022/08/23 19:26:27;;;;;;;31.87;25.60;;;26.00;60.00;;;;;;4736304;59;21580;-29
2022/08/23 19:31:28;;;;;;;30.70;24.35;;;26.10;60.10;;;;;;4774844;55;21518;-29
2022/08/23 19:36:29;;;;;;;29.35;24.33;;;26.10;60.10;;;;;;4739928;55;21007;-32
2022/08/23 19:41:30;;;;;;;30.77;25.42;;;26.10;60.10;;;;;;4739621;55;20984;-27
2022/08/23 19:46:31;;;;;;;29.08;24.40;;;26.10;60.00;;;;;;4741474;55;21485;-36
2022/08/23 19:51:32;;;;;;;27.52;24.02;;;26.10;60.00;;;;;;4782510;55;21462;-36
2022/08/23 19:56:40;;;;;;;29.73;24.35;;;26.10;60.10;;;;;;4767293;55;21039;-32
2022/08/23 20:01:41;;;;;;;32.38;25.12;;;26.00;60.00;;;;;;4736552;59;21473;-27
2022/08/23 20:06:42;;;;;;;31.00;24.67;;;26.00;60.00;;;;;;4758321;55;21059;-28
2022/08/23 20:11:43;;;;;;;30.35;24.17;;;26.00;60.00;;;;;;4756820;55;21565;-34
2022/08/23 20:16:44;;;;;;;28.27;23.95;;;26.10;60.10;;;;;;4757863;55;21108;-25
2022/08/23 20:21:45;;;;;;;29.08;23.87;;;26.00;60.00;;;;;;4754624;55;20980;-26
2022/08/23 20:26:48;;;;;;;28.15;23.55;;;26.10;60.20;;;;;;4766594;55;20987;-26
2022/08/23 20:31:59;;;;;;;27.33;22.52;;;26.10;60.20;;;;;;4751738;55;20991;-34
2022/08/23 20:37:00;;;;;;;27.85;23.83;;;26.10;60.10;;;;;;4745247;55;21481;-30
2022/08/23 20:42:01;;;;;;;28.98;23.25;;;26.00;60.00;;;;;;4748126;55;21019;-29
2022/08/23 20:47:02;;;;;;;27.92;22.52;;;26.00;60.00;;;;;;4752474;55;21023;-30
2022/08/23 20:52:03;;;;;;;28.30;23.75;;;26.00;60.10;;;;;;4749665;55;21078;-28
2022/08/23 20:57:07;;;;;;;25.75;22.30;;;26.00;60.10;;;;;;4739771;55;20972;-32
2022/08/23 21:02:08;;;;;;;26.55;22.40;;;26.00;60.10;;;;;;4736655;59;21106;-27
2022/08/23 21:07:09;;;;;;;26.50;22.13;;;26.00;60.10;;;;;;4771498;55;21446;-31
2022/08/23 21:12:10;;;;;;;27.42;22.10;;;26.00;60.10;;;;;;4735301;59;21015;-26
2022/08/23 21:17:10;;;;;;;24.92;21.02;;;26.10;60.20;;;;;;4807276;55;21007;-29
2022/08/23 21:22:12;;;;;;;27.30;21.87;;;26.00;60.10;;;;;;4750749;55;21470;-27
2022/08/23 21:27:13;;;;;;;27.15;21.92;;;26.00;60.20;;;;;;4737590;55;21044;-30
2022/08/23 21:32:14;;;;;;;26.08;21.10;;;26.00;60.10;;;;;;4749265;55;21011;-35
2022/08/23 21:37:15;;;;;;;26.50;21.10;;;26.00;60.20;;;;;;4736402;59;20984;-29
2022/08/23 21:42:17;;;;;;;25.00;19.98;;;26.00;60.20;;;;;;4758677;55;21023;-33
2022/08/23 21:47:19;;;;;;;25.40;20.95;;;26.00;60.20;;;;;;4768855;55;21007;-30
2022/08/23 21:52:23;;;;;;;24.50;20.98;;;26.00;60.20;;;;;;4750204;55;21466;-26
2022/08/23 21:57:23;;;;;;;25.37;20.33;;;26.00;60.30;;;;;;4760324;55;21083;-30
2022/08/23 22:02:27;;;;;;;25.70;20.02;;;26.00;60.30;;;;;;4757640;55;21466;-31
2022/08/23 22:07:28;;;;;;;25.27;20.83;;;26.00;60.30;;;;;;4755053;55;21387;-30
2022/08/23 22:12:28;;;;;;;25.05;20.05;;;26.00;60.30;;;;;;4772932;55;21099;-29
2022/08/23 22:17:30;;;;;;;24.35;20.20;;;26.00;60.30;;;;;;4736025;59;21391;-32
2022/08/23 22:22:32;;;;;;;25.42;20.00;;;26.00;60.30;;;;;;4751727;55;21422;-30
2022/08/23 22:27:32;;;;;;;26.02;19.92;;;26.00;60.30;;;;;;4763042;55;21647;-27
2022/08/23 22:32:33;;;;;;;26.37;20.02;;;26.00;60.40;;;;;;4735477;59;21135;-28
2022/08/23 22:37:36;;;;;;;26.15;20.00;;;26.00;60.40;;;;;;4736554;59;21973;-28
2022/08/23 22:42:37;;;;;;;22.23;19.35;;;26.00;60.40;;;;;;4744992;55;21533;-29
2022/08/23 22:47:38;;;;;;;21.40;18.65;;;26.00;60.40;;;;;;4755203;55;21010;-32
2022/08/23 22:52:40;;;;;;;22.02;19.48;;;26.00;60.40;;;;;;4750578;55;20980;-35
2022/08/23 22:57:41;;;;;;;23.67;18.77;;;26.00;60.40;;;;;;4736211;59;21539;-32
2022/08/23 23:02:42;;;;;;;22.58;19.00;;;26.00;60.40;;;;;;4736640;59;21055;-29
2022/08/23 23:13:05;;;;;;;23.45;18.42;;;26.00;60.50;;;;;;4742294;55;21087;-37
2022/08/23 23:18:06;;;;;;;22.55;18.17;;;26.00;60.50;;;;;;4735668;59;21486;-30
2022/08/23 23:23:19;;;;;;;24.37;18.48;;;26.00;60.60;;;;;;4744691;55;20991;-29
2022/08/23 23:28:20;;;;;;;24.40;18.90;;;26.00;60.50;;;;;;4762660;55;21051;-27
2022/08/23 23:33:22;;;;;;;21.75;18.92;;;26.00;60.50;;;;;;4747903;55;21488;-33
2022/08/23 23:38:23;;;;;;;23.17;18.33;;;26.00;60.50;;;;;;4741367;55;21476;-28
2022/08/23 23:43:24;;;;;;;19.70;17.33;;;26.00;60.50;;;;;;4762538;55;21054;-27
2022/08/23 23:48:24;;;;;;;21.48;17.87;;;26.00;60.50;;;;;;4759329;55;21356;-29
2022/08/23 23:53:25;;;;;;;21.10;17.30;;;26.00;60.50;;;;;;4781482;55;21027;-32
2022/08/23 23:58:26;;;;;;;21.10;17.17;;;26.00;60.50;;;;;;4736427;59;21441;-30
